sensor_id;sensor_type;location;lat;lon;timestamp;P1;durP1;ratioP1;P2;durP2;ratioP2
17596;SDS011;8917;50.942;6.946;2022-07-09T00:01:55;6.45;;;4.03;;
17596;SDS011;8917;50.942;6.946;2022-07-09T00:04:23;5.75;;;4.00;;
17596;SDS011;8917;50.942;6.946;2022-07-09T00:06:50;5.30;;;3.80;;
17596;SDS011;8917;50.942;6.946;2022-07-09T00:09:17;5.90;;;3.45;;
17596;SDS011;8917;50.942;6.946;2022-07-09T00:11:46;8.85;;;3.33;;
17596;SDS011;8917;50.942;6.946;2022-07-09T00:14:13;6.80;;;4.95;;
17596;SDS011;8917;50.942;6.946;2022-07-09T00:16:40;9.00;;;4.90;;
17596;SDS011;8917;50.942;6.946;2022-07-09T00:19:07;6.82;;;3.90;;
17596;SDS011;8917;50.942;6.946;2022-07-09T00:21:34;7.90;;;4.60;;
17596;SDS011;8917;50.942;6.946;2022-07-09T00:24:02;5.95;;;4.20;;
17596;SDS011;8917;50.942;6.946;2022-07-09T00:26:32;8.17;;;4.13;;
17596;SDS011;8917;50.942;6.946;2022-07-09T00:29:00;6.03;;;3.88;;
17596;SDS011;8917;50.942;6.946;2022-07-09T00:31:28;7.55;;;3.92;;
17596;SDS011;8917;50.942;6.946;2022-07-09T00:33:55;7.57;;;5.55;;
17596;SDS011;8917;50.942;6.946;2022-07-09T00:36:22;12.23;;;4.93;;
17596;SDS011;8917;50.942;6.946;2022-07-09T00:38:49;6.88;;;5.28;;
17596;SDS011;8917;50.942;6.946;2022-07-09T00:41:16;9.17;;;5.07;;
17596;SDS011;8917;50.942;6.946;2022-07-09T00:43:45;6.70;;;5.23;;
17596;SDS011;8917;50.942;6.946;2022-07-09T00:46:15;6.80;;;4.10;;
17596;SDS011;8917;50.942;6.946;2022-07-09T00:48:42;7.63;;;3.80;;
17596;SDS011;8917;50.942;6.946;2022-07-09T00:51:10;6.18;;;4.20;;
17596;SDS011;8917;50.942;6.946;2022-07-09T00:53:39;6.10;;;4.03;;
17596;SDS011;8917;50.942;6.946;2022-07-09T00:56:07;8.10;;;4.13;;
17596;SDS011;8917;50.942;6.946;2022-07-09T00:58:35;5.57;;;4.05;;
17596;SDS011;8917;50.942;6.946;2022-07-09T01:01:03;5.63;;;4.18;;
17596;SDS011;8917;50.942;6.946;2022-07-09T01:03:32;5.53;;;3.72;;
17596;SDS011;8917;50.942;6.946;2022-07-09T01:05:59;5.25;;;4.03;;
17596;SDS011;8917;50.942;6.946;2022-07-09T01:08:27;7.68;;;5.38;;
17596;SDS011;8917;50.942;6.946;2022-07-09T01:10:54;8.57;;;4.60;;
17596;SDS011;8917;50.942;6.946;2022-07-09T01:13:21;10.68;;;5.00;;
17596;SDS011;8917;50.942;6.946;2022-07-09T01:15:49;6.05;;;5.28;;
17596;SDS011;8917;50.942;6.946;2022-07-09T01:18:16;6.32;;;4.40;;
17596;SDS011;8917;50.942;6.946;2022-07-09T01:20:44;8.68;;;3.90;;
17596;SDS011;8917;50.942;6.946;2022-07-09T01:23:12;6.50;;;3.78;;
17596;SDS011;8917;50.942;6.946;2022-07-09T01:25:40;8.80;;;3.75;;
17596;SDS011;8917;50.942;6.946;2022-07-09T01:28:09;8.15;;;3.40;;
17596;SDS011;8917;50.942;6.946;2022-07-09T01:30:40;7.78;;;4.18;;
17596;SDS011;8917;50.942;6.946;2022-07-09T01:33:07;4.90;;;3.70;;
17596;SDS011;8917;50.942;6.946;2022-07-09T01:35:35;5.95;;;4.03;;
17596;SDS011;8917;50.942;6.946;2022-07-09T01:38:03;5.55;;;3.28;;
17596;SDS011;8917;50.942;6.946;2022-07-09T01:40:30;5.47;;;3.45;;
17596;SDS011;8917;50.942;6.946;2022-07-09T01:42:57;8.75;;;3.72;;
17596;SDS011;8917;50.942;6.946;2022-07-09T01:45:25;7.40;;;3.35;;
17596;SDS011;8917;50.942;6.946;2022-07-09T01:47:52;10.52;;;3.85;;
17596;SDS011;8917;50.942;6.946;2022-07-09T01:50:19;7.32;;;3.90;;
17596;SDS011;8917;50.942;6.946;2022-07-09T01:52:46;5.18;;;3.83;;
17596;SDS011;8917;50.942;6.946;2022-07-09T01:55:17;5.70;;;3.53;;
17596;SDS011;8917;50.942;6.946;2022-07-09T01:57:44;7.07;;;3.85;;
17596;SDS011;8917;50.942;6.946;2022-07-09T02:00:14;6.78;;;3.80;;
17596;SDS011;8917;50.942;6.946;2022-07-09T02:02:43;4.18;;;3.42;;
17596;SDS011;8917;50.942;6.946;2022-07-09T02:05:10;7.07;;;3.70;;
17596;SDS011;8917;50.942;6.946;2022-07-09T02:07:38;6.60;;;3.88;;
17596;SDS011;8917;50.942;6.946;2022-07-09T02:10:05;8.95;;;3.67;;
17596;SDS011;8917;50.942;6.946;2022-07-09T02:12:36;6.95;;;3.40;;
17596;SDS011;8917;50.942;6.946;2022-07-09T02:15:03;4.25;;;3.78;;
17596;SDS011;8917;50.942;6.946;2022-07-09T02:17:32;8.18;;;3.50;;
17596;SDS011;8917;50.942;6.946;2022-07-09T02:19:59;6.55;;;3.45;;
17596;SDS011;8917;50.942;6.946;2022-07-09T02:22:26;7.03;;;3.38;;
17596;SDS011;8917;50.942;6.946;2022-07-09T02:24:56;6.27;;;3.57;;
17596;SDS011;8917;50.942;6.946;2022-07-09T02:27:23;7.28;;;3.35;;
17596;SDS011;8917;50.942;6.946;2022-07-09T02:29:52;7.78;;;3.25;;
17596;SDS011;8917;50.942;6.946;2022-07-09T02:32:21;5.82;;;3.28;;
17596;SDS011;8917;50.942;6.946;2022-07-09T02:34:48;5.77;;;2.83;;
17596;SDS011;8917;50.942;6.946;2022-07-09T02:37:18;7.15;;;3.75;;
17596;SDS011;8917;50.942;6.946;2022-07-09T02:39:45;7.28;;;3.75;;
17596;SDS011;8917;50.942;6.946;2022-07-09T02:42:12;8.90;;;3.53;;
17596;SDS011;8917;50.942;6.946;2022-07-09T02:44:40;6.88;;;3.58;;
17596;SDS011;8917;50.942;6.946;2022-07-09T02:47:09;5.22;;;3.55;;
17596;SDS011;8917;50.942;6.946;2022-07-09T02:49:37;7.25;;;4.00;;
17596;SDS011;8917;50.942;6.946;2022-07-09T02:52:04;7.00;;;3.67;;
17596;SDS011;8917;50.942;6.946;2022-07-09T02:54:31;7.43;;;4.10;;
17596;SDS011;8917;50.942;6.946;2022-07-09T02:56:59;5.32;;;3.42;;
17596;SDS011;8917;50.942;6.946;2022-07-09T02:59:27;8.20;;;4.15;;
17596;SDS011;8917;50.942;6.946;2022-07-09T03:01:54;7.27;;;3.83;;
17596;SDS011;8917;50.942;6.946;2022-07-09T03:04:22;8.27;;;4.15;;
17596;SDS011;8917;50.942;6.946;2022-07-09T03:06:49;6.93;;;3.90;;
17596;SDS011;8917;50.942;6.946;2022-07-09T03:09:17;5.83;;;3.80;;
17596;SDS011;8917;50.942;6.946;2022-07-09T03:11:44;6.82;;;3.30;;
17596;SDS011;8917;50.942;6.946;2022-07-09T03:14:11;6.85;;;3.60;;
17596;SDS011;8917;50.942;6.946;2022-07-09T03:16:38;5.90;;;3.53;;
17596;SDS011;8917;50.942;6.946;2022-07-09T03:19:05;8.50;;;3.90;;
17596;SDS011;8917;50.942;6.946;2022-07-09T03:21:34;6.00;;;3.43;;
17596;SDS011;8917;50.942;6.946;2022-07-09T03:24:01;8.55;;;3.92;;
17596;SDS011;8917;50.942;6.946;2022-07-09T03:26:29;7.18;;;3.97;;
17596;SDS011;8917;50.942;6.946;2022-07-09T03:28:56;7.63;;;4.00;;
17596;SDS011;8917;50.942;6.946;2022-07-09T03:31:23;9.37;;;3.70;;
17596;SDS011;8917;50.942;6.946;2022-07-09T03:33:50;6.53;;;3.75;;
17596;SDS011;8917;50.942;6.946;2022-07-09T03:36:18;6.18;;;4.00;;
17596;SDS011;8917;50.942;6.946;2022-07-09T03:38:47;7.38;;;4.30;;
17596;SDS011;8917;50.942;6.946;2022-07-09T03:41:14;9.07;;;4.32;;
17596;SDS011;8917;50.942;6.946;2022-07-09T03:43:41;6.22;;;4.07;;
17596;SDS011;8917;50.942;6.946;2022-07-09T03:46:08;9.18;;;4.18;;
17596;SDS011;8917;50.942;6.946;2022-07-09T03:48:36;9.17;;;3.93;;
17596;SDS011;8917;50.942;6.946;2022-07-09T03:51:03;4.63;;;3.63;;
17596;SDS011;8917;50.942;6.946;2022-07-09T03:53:30;8.35;;;3.42;;
17596;SDS011;8917;50.942;6.946;2022-07-09T03:55:59;8.57;;;3.57;;
17596;SDS011;8917;50.942;6.946;2022-07-09T03:58:26;6.40;;;3.73;;
17596;SDS011;8917;50.942;6.946;2022-07-09T04:00:53;5.53;;;3.80;;
17596;SDS011;8917;50.942;6.946;2022-07-09T04:03:20;7.00;;;3.67;;
17596;SDS011;8917;50.942;6.946;2022-07-09T04:05:48;7.38;;;4.07;;
17596;SDS011;8917;50.942;6.946;2022-07-09T04:08:15;10.43;;;4.30;;
17596;SDS011;8917;50.942;6.946;2022-07-09T04:10:42;9.47;;;4.60;;
17596;SDS011;8917;50.942;6.946;2022-07-09T04:13:11;9.05;;;4.13;;
17596;SDS011;8917;50.942;6.946;2022-07-09T04:15:38;7.53;;;4.40;;
17596;SDS011;8917;50.942;6.946;2022-07-09T04:18:05;7.43;;;4.47;;
17596;SDS011;8917;50.942;6.946;2022-07-09T04:20:32;7.07;;;4.35;;
17596;SDS011;8917;50.942;6.946;2022-07-09T04:22:59;8.50;;;4.38;;
17596;SDS011;8917;50.942;6.946;2022-07-09T04:25:27;9.27;;;4.77;;
17596;SDS011;8917;50.942;6.946;2022-07-09T04:27:54;5.90;;;4.93;;
17596;SDS011;8917;50.942;6.946;2022-07-09T04:30:22;6.13;;;5.00;;
17596;SDS011;8917;50.942;6.946;2022-07-09T04:32:50;8.82;;;5.63;;
17596;SDS011;8917;50.942;6.946;2022-07-09T04:35:17;6.20;;;4.93;;
17596;SDS011;8917;50.942;6.946;2022-07-09T04:37:44;9.35;;;5.35;;
17596;SDS011;8917;50.942;6.946;2022-07-09T04:40:11;6.60;;;5.20;;
17596;SDS011;8917;50.942;6.946;2022-07-09T04:42:39;11.57;;;5.90;;
17596;SDS011;8917;50.942;6.946;2022-07-09T04:45:07;8.75;;;5.90;;
17596;SDS011;8917;50.942;6.946;2022-07-09T04:47:35;9.82;;;5.55;;
17596;SDS011;8917;50.942;6.946;2022-07-09T04:50:03;9.70;;;6.13;;
17596;SDS011;8917;50.942;6.946;2022-07-09T04:52:30;7.07;;;5.50;;
17596;SDS011;8917;50.942;6.946;2022-07-09T04:54:57;7.85;;;5.72;;
17596;SDS011;8917;50.942;6.946;2022-07-09T04:57:24;11.63;;;6.50;;
17596;SDS011;8917;50.942;6.946;2022-07-09T04:59:51;12.60;;;6.55;;
17596;SDS011;8917;50.942;6.946;2022-07-09T05:02:19;9.05;;;6.13;;
17596;SDS011;8917;50.942;6.946;2022-07-09T05:04:47;12.35;;;6.55;;
17596;SDS011;8917;50.942;6.946;2022-07-09T05:07:15;11.55;;;6.55;;
17596;SDS011;8917;50.942;6.946;2022-07-09T05:09:42;10.35;;;7.40;;
17596;SDS011;8917;50.942;6.946;2022-07-09T05:12:09;9.82;;;6.38;;
17596;SDS011;8917;50.942;6.946;2022-07-09T05:14:36;9.00;;;7.03;;
17596;SDS011;8917;50.942;6.946;2022-07-09T05:17:05;9.98;;;6.88;;
17596;SDS011;8917;50.942;6.946;2022-07-09T05:19:32;9.17;;;7.67;;
17596;SDS011;8917;50.942;6.946;2022-07-09T05:22:01;9.97;;;5.90;;
17596;SDS011;8917;50.942;6.946;2022-07-09T05:24:28;10.53;;;6.77;;
17596;SDS011;8917;50.942;6.946;2022-07-09T05:26:55;8.80;;;7.23;;
17596;SDS011;8917;50.942;6.946;2022-07-09T05:29:22;8.90;;;7.50;;
17596;SDS011;8917;50.942;6.946;2022-07-09T05:31:51;11.53;;;7.37;;
17596;SDS011;8917;50.942;6.946;2022-07-09T05:34:18;10.05;;;7.78;;
17596;SDS011;8917;50.942;6.946;2022-07-09T05:36:45;10.82;;;8.20;;
17596;SDS011;8917;50.942;6.946;2022-07-09T05:39:14;15.30;;;7.77;;
17596;SDS011;8917;50.942;6.946;2022-07-09T05:41:41;10.68;;;7.72;;
17596;SDS011;8917;50.942;6.946;2022-07-09T05:44:08;10.40;;;8.10;;
17596;SDS011;8917;50.942;6.946;2022-07-09T05:46:36;14.18;;;8.20;;
17596;SDS011;8917;50.942;6.946;2022-07-09T05:49:03;9.47;;;7.83;;
17596;SDS011;8917;50.942;6.946;2022-07-09T05:51:30;11.00;;;8.60;;
17596;SDS011;8917;50.942;6.946;2022-07-09T05:53:58;11.53;;;8.50;;
17596;SDS011;8917;50.942;6.946;2022-07-09T05:56:26;11.15;;;8.32;;
17596;SDS011;8917;50.942;6.946;2022-07-09T05:58:53;11.00;;;7.75;;
17596;SDS011;8917;50.942;6.946;2022-07-09T06:01:21;12.00;;;8.50;;
17596;SDS011;8917;50.942;6.946;2022-07-09T06:03:48;12.27;;;8.03;;
17596;SDS011;8917;50.942;6.946;2022-07-09T06:06:15;9.33;;;7.47;;
17596;SDS011;8917;50.942;6.946;2022-07-09T06:08:42;11.27;;;7.20;;
17596;SDS011;8917;50.942;6.946;2022-07-09T06:11:09;10.73;;;7.40;;
17596;SDS011;8917;50.942;6.946;2022-07-09T06:13:38;10.13;;;7.30;;
17596;SDS011;8917;50.942;6.946;2022-07-09T06:16:06;13.83;;;7.20;;
17596;SDS011;8917;50.942;6.946;2022-07-09T06:18:33;9.47;;;7.50;;
17596;SDS011;8917;50.942;6.946;2022-07-09T06:21:00;9.00;;;7.30;;
17596;SDS011;8917;50.942;6.946;2022-07-09T06:23:28;9.40;;;7.40;;
17596;SDS011;8917;50.942;6.946;2022-07-09T06:25:55;9.03;;;7.53;;
17596;SDS011;8917;50.942;6.946;2022-07-09T06:28:22;11.63;;;7.40;;
17596;SDS011;8917;50.942;6.946;2022-07-09T06:30:51;7.72;;;6.65;;
17596;SDS011;8917;50.942;6.946;2022-07-09T06:33:18;10.23;;;7.33;;
17596;SDS011;8917;50.942;6.946;2022-07-09T06:35:45;10.87;;;8.13;;
17596;SDS011;8917;50.942;6.946;2022-07-09T06:38:12;7.10;;;6.40;;
17596;SDS011;8917;50.942;6.946;2022-07-09T06:40:40;6.97;;;5.87;;
17596;SDS011;8917;50.942;6.946;2022-07-09T06:43:07;9.02;;;5.22;;
17596;SDS011;8917;50.942;6.946;2022-07-09T06:45:36;6.40;;;5.07;;
17596;SDS011;8917;50.942;6.946;2022-07-09T06:48:05;6.05;;;4.93;;
17596;SDS011;8917;50.942;6.946;2022-07-09T06:50:32;7.27;;;5.43;;
17596;SDS011;8917;50.942;6.946;2022-07-09T06:52:59;4.87;;;4.30;;
17596;SDS011;8917;50.942;6.946;2022-07-09T06:55:26;7.15;;;4.53;;
17596;SDS011;8917;50.942;6.946;2022-07-09T06:57:54;6.30;;;4.67;;
17596;SDS011;8917;50.942;6.946;2022-07-09T07:00:22;5.03;;;4.53;;
17596;SDS011;8917;50.942;6.946;2022-07-09T07:02:49;5.15;;;3.80;;
17596;SDS011;8917;50.942;6.946;2022-07-09T07:05:18;5.00;;;3.60;;
17596;SDS011;8917;50.942;6.946;2022-07-09T07:07:45;7.75;;;4.30;;
17596;SDS011;8917;50.942;6.946;2022-07-09T07:10:13;7.45;;;4.38;;
17596;SDS011;8917;50.942;6.946;2022-07-09T07:12:40;4.30;;;3.43;;
17596;SDS011;8917;50.942;6.946;2022-07-09T07:15:07;6.07;;;3.00;;
17596;SDS011;8917;50.942;6.946;2022-07-09T07:17:35;9.80;;;6.43;;
17596;SDS011;8917;50.942;6.946;2022-07-09T07:20:02;6.07;;;3.92;;
17596;SDS011;8917;50.942;6.946;2022-07-09T07:22:31;5.05;;;4.13;;
17596;SDS011;8917;50.942;6.946;2022-07-09T07:25:00;6.93;;;4.63;;
17596;SDS011;8917;50.942;6.946;2022-07-09T07:27:27;7.83;;;4.63;;
17596;SDS011;8917;50.942;6.946;2022-07-09T07:29:54;7.97;;;4.47;;
17596;SDS011;8917;50.942;6.946;2022-07-09T07:32:22;8.07;;;4.97;;
17596;SDS011;8917;50.942;6.946;2022-07-09T07:34:50;8.43;;;5.80;;
17596;SDS011;8917;50.942;6.946;2022-07-09T07:37:17;8.60;;;5.87;;
17596;SDS011;8917;50.942;6.946;2022-07-09T07:39:45;9.02;;;5.50;;
17596;SDS011;8917;50.942;6.946;2022-07-09T07:42:13;8.85;;;5.72;;
17596;SDS011;8917;50.942;6.946;2022-07-09T07:44:41;8.88;;;6.47;;
17596;SDS011;8917;50.942;6.946;2022-07-09T07:47:08;10.93;;;6.50;;
17596;SDS011;8917;50.942;6.946;2022-07-09T07:49:35;8.73;;;5.93;;
17596;SDS011;8917;50.942;6.946;2022-07-09T07:52:02;12.57;;;6.40;;
17596;SDS011;8917;50.942;6.946;2022-07-09T07:54:30;14.60;;;8.00;;
17596;SDS011;8917;50.942;6.946;2022-07-09T07:56:59;16.90;;;8.23;;
17596;SDS011;8917;50.942;6.946;2022-07-09T07:59:27;11.82;;;7.53;;
17596;SDS011;8917;50.942;6.946;2022-07-09T08:01:54;11.40;;;7.90;;
17596;SDS011;8917;50.942;6.946;2022-07-09T08:04:21;18.08;;;8.80;;
17596;SDS011;8917;50.942;6.946;2022-07-09T08:06:48;10.63;;;7.55;;
17596;SDS011;8917;50.942;6.946;2022-07-09T08:09:15;6.85;;;5.13;;
17596;SDS011;8917;50.942;6.946;2022-07-09T08:11:43;11.68;;;6.03;;
17596;SDS011;8917;50.942;6.946;2022-07-09T08:14:12;9.80;;;5.93;;
17596;SDS011;8917;50.942;6.946;2022-07-09T08:16:39;9.00;;;5.90;;
17596;SDS011;8917;50.942;6.946;2022-07-09T08:19:07;10.35;;;6.03;;
17596;SDS011;8917;50.942;6.946;2022-07-09T08:21:34;11.40;;;6.30;;
17596;SDS011;8917;50.942;6.946;2022-07-09T08:24:01;7.35;;;3.95;;
17596;SDS011;8917;50.942;6.946;2022-07-09T08:26:30;7.10;;;3.67;;
17596;SDS011;8917;50.942;6.946;2022-07-09T08:28:58;5.03;;;4.03;;
17596;SDS011;8917;50.942;6.946;2022-07-09T08:31:26;5.57;;;4.10;;
17596;SDS011;8917;50.942;6.946;2022-07-09T08:33:54;6.82;;;5.13;;
17596;SDS011;8917;50.942;6.946;2022-07-09T08:36:21;5.65;;;3.50;;
17596;SDS011;8917;50.942;6.946;2022-07-09T08:38:48;3.25;;;2.65;;
17596;SDS011;8917;50.942;6.946;2022-07-09T08:41:15;4.37;;;2.37;;
17596;SDS011;8917;50.942;6.946;2022-07-09T08:43:48;3.95;;;2.17;;
17596;SDS011;8917;50.942;6.946;2022-07-09T08:46:15;2.40;;;2.17;;
17596;SDS011;8917;50.942;6.946;2022-07-09T08:48:44;3.75;;;2.10;;
17596;SDS011;8917;50.942;6.946;2022-07-09T08:51:12;2.35;;;2.00;;
17596;SDS011;8917;50.942;6.946;2022-07-09T08:53:40;2.45;;;1.83;;
17596;SDS011;8917;50.942;6.946;2022-07-09T08:56:07;2.60;;;1.90;;
17596;SDS011;8917;50.942;6.946;2022-07-09T08:58:35;6.53;;;4.97;;
17596;SDS011;8917;50.942;6.946;2022-07-09T09:01:06;2.00;;;1.90;;
17596;SDS011;8917;50.942;6.946;2022-07-09T09:03:33;2.65;;;2.00;;
17596;SDS011;8917;50.942;6.946;2022-07-09T09:06:03;2.50;;;2.10;;
17596;SDS011;8917;50.942;6.946;2022-07-09T09:08:33;2.97;;;2.67;;
17596;SDS011;8917;50.942;6.946;2022-07-09T09:11:01;4.63;;;2.70;;
17596;SDS011;8917;50.942;6.946;2022-07-09T09:13:29;3.03;;;2.28;;
17596;SDS011;8917;50.942;6.946;2022-07-09T09:16:03;4.40;;;2.40;;
17596;SDS011;8917;50.942;6.946;2022-07-09T09:18:30;2.35;;;2.15;;
17596;SDS011;8917;50.942;6.946;2022-07-09T09:21:02;3.38;;;1.98;;
17596;SDS011;8917;50.942;6.946;2022-07-09T09:23:37;2.35;;;1.90;;
17596;SDS011;8917;50.942;6.946;2022-07-09T09:26:08;2.05;;;1.85;;
17596;SDS011;8917;50.942;6.946;2022-07-09T09:28:44;2.22;;;1.80;;
17596;SDS011;8917;50.942;6.946;2022-07-09T09:31:17;2.53;;;2.10;;
17596;SDS011;8917;50.942;6.946;2022-07-09T09:33:44;2.35;;;1.80;;
17596;SDS011;8917;50.942;6.946;2022-07-09T09:36:22;2.95;;;1.90;;
17596;SDS011;8917;50.942;6.946;2022-07-09T09:38:49;2.15;;;1.77;;
17596;SDS011;8917;50.942;6.946;2022-07-09T09:41:20;2.25;;;1.83;;
17596;SDS011;8917;50.942;6.946;2022-07-09T09:43:48;2.30;;;1.88;;
17596;SDS011;8917;50.942;6.946;2022-07-09T09:46:16;2.25;;;2.08;;
17596;SDS011;8917;50.942;6.946;2022-07-09T09:48:44;2.80;;;2.00;;
17596;SDS011;8917;50.942;6.946;2022-07-09T09:51:13;2.13;;;2.03;;
17596;SDS011;8917;50.942;6.946;2022-07-09T09:53:41;10.55;;;8.25;;
17596;SDS011;8917;50.942;6.946;2022-07-09T09:56:09;2.58;;;2.38;;
17596;SDS011;8917;50.942;6.946;2022-07-09T09:58:36;2.60;;;2.10;;
17596;SDS011;8917;50.942;6.946;2022-07-09T10:01:04;2.28;;;1.50;;
17596;SDS011;8917;50.942;6.946;2022-07-09T10:03:31;2.10;;;1.90;;
17596;SDS011;8917;50.942;6.946;2022-07-09T10:05:59;3.35;;;2.20;;
17596;SDS011;8917;50.942;6.946;2022-07-09T10:08:27;3.90;;;2.20;;
17596;SDS011;8917;50.942;6.946;2022-07-09T10:10:54;4.32;;;2.20;;
17596;SDS011;8917;50.942;6.946;2022-07-09T10:13:22;3.15;;;2.30;;
17596;SDS011;8917;50.942;6.946;2022-07-09T10:15:49;2.97;;;1.90;;
17596;SDS011;8917;50.942;6.946;2022-07-09T10:18:17;3.15;;;1.95;;
17596;SDS011;8917;50.942;6.946;2022-07-09T10:20:45;2.20;;;1.70;;
17596;SDS011;8917;50.942;6.946;2022-07-09T10:23:19;1.70;;;1.60;;
17596;SDS011;8917;50.942;6.946;2022-07-09T10:25:49;3.58;;;1.58;;
17596;SDS011;8917;50.942;6.946;2022-07-09T10:28:18;4.65;;;1.42;;
17596;SDS011;8917;50.942;6.946;2022-07-09T10:30:45;2.72;;;1.45;;
17596;SDS011;8917;50.942;6.946;2022-07-09T10:33:13;3.03;;;1.85;;
17596;SDS011;8917;50.942;6.946;2022-07-09T10:35:48;2.63;;;2.03;;
17596;SDS011;8917;50.942;6.946;2022-07-09T10:38:19;1.90;;;1.75;;
17596;SDS011;8917;50.942;6.946;2022-07-09T10:40:57;2.35;;;1.52;;
17596;SDS011;8917;50.942;6.946;2022-07-09T10:43:37;3.03;;;1.70;;
17596;SDS011;8917;50.942;6.946;2022-07-09T10:46:08;1.88;;;1.60;;
17596;SDS011;8917;50.942;6.946;2022-07-09T10:48:39;2.35;;;1.70;;
17596;SDS011;8917;50.942;6.946;2022-07-09T10:51:06;3.75;;;1.77;;
17596;SDS011;8917;50.942;6.946;2022-07-09T10:53:44;1.60;;;1.50;;
17596;SDS011;8917;50.942;6.946;2022-07-09T10:56:17;2.13;;;1.83;;
17596;SDS011;8917;50.942;6.946;2022-07-09T10:58:45;3.63;;;2.25;;
17596;SDS011;8917;50.942;6.946;2022-07-09T11:01:18;2.72;;;1.90;;
17596;SDS011;8917;50.942;6.946;2022-07-09T11:03:48;2.58;;;1.92;;
17596;SDS011;8917;50.942;6.946;2022-07-09T11:06:16;2.08;;;1.52;;
17596;SDS011;8917;50.942;6.946;2022-07-09T11:08:43;1.52;;;1.40;;
17596;SDS011;8917;50.942;6.946;2022-07-09T11:11:11;2.28;;;1.77;;
17596;SDS011;8917;50.942;6.946;2022-07-09T11:13:39;2.30;;;1.58;;
17596;SDS011;8917;50.942;6.946;2022-07-09T11:16:06;1.83;;;1.60;;
17596;SDS011;8917;50.942;6.946;2022-07-09T11:18:33;2.08;;;1.60;;
17596;SDS011;8917;50.942;6.946;2022-07-09T11:21:01;1.73;;;1.48;;
17596;SDS011;8917;50.942;6.946;2022-07-09T11:23:28;1.48;;;1.33;;
17596;SDS011;8917;50.942;6.946;2022-07-09T11:25:55;3.15;;;2.50;;
17596;SDS011;8917;50.942;6.946;2022-07-09T11:28:22;1.83;;;1.55;;
17596;SDS011;8917;50.942;6.946;2022-07-09T11:31:00;1.83;;;1.40;;
17596;SDS011;8917;50.942;6.946;2022-07-09T11:33:28;1.98;;;1.77;;
17596;SDS011;8917;50.942;6.946;2022-07-09T11:36:16;2.78;;;1.75;;
17596;SDS011;8917;50.942;6.946;2022-07-09T11:38:47;2.08;;;1.63;;
17596;SDS011;8917;50.942;6.946;2022-07-09T11:41:14;1.60;;;1.50;;
17596;SDS011;8917;50.942;6.946;2022-07-09T11:43:45;2.40;;;1.60;;
17596;SDS011;8917;50.942;6.946;2022-07-09T11:46:16;1.48;;;1.30;;
17596;SDS011;8917;50.942;6.946;2022-07-09T11:48:48;1.63;;;1.45;;
17596;SDS011;8917;50.942;6.946;2022-07-09T11:51:25;1.98;;;1.75;;
17596;SDS011;8917;50.942;6.946;2022-07-09T11:53:52;2.97;;;2.20;;
17596;SDS011;8917;50.942;6.946;2022-07-09T11:56:20;2.15;;;1.95;;
17596;SDS011;8917;50.942;6.946;2022-07-09T11:58:48;1.80;;;1.70;;
17596;SDS011;8917;50.942;6.946;2022-07-09T12:01:17;2.63;;;2.00;;
17596;SDS011;8917;50.942;6.946;2022-07-09T12:03:46;1.83;;;1.73;;
17596;SDS011;8917;50.942;6.946;2022-07-09T12:06:13;2.40;;;2.17;;
17596;SDS011;8917;50.942;6.946;2022-07-09T12:08:40;2.47;;;2.03;;
17596;SDS011;8917;50.942;6.946;2022-07-09T12:11:08;2.22;;;2.00;;
17596;SDS011;8917;50.942;6.946;2022-07-09T12:13:36;3.30;;;2.20;;
17596;SDS011;8917;50.942;6.946;2022-07-09T12:16:03;3.10;;;2.10;;
17596;SDS011;8917;50.942;6.946;2022-07-09T12:18:32;3.35;;;2.30;;
17596;SDS011;8917;50.942;6.946;2022-07-09T12:20:59;2.75;;;2.20;;
17596;SDS011;8917;50.942;6.946;2022-07-09T12:23:26;3.03;;;2.47;;
17596;SDS011;8917;50.942;6.946;2022-07-09T12:25:53;3.35;;;2.53;;
17596;SDS011;8917;50.942;6.946;2022-07-09T12:28:21;3.50;;;2.60;;
17596;SDS011;8917;50.942;6.946;2022-07-09T12:30:48;3.97;;;2.25;;
17596;SDS011;8917;50.942;6.946;2022-07-09T12:33:15;2.78;;;2.50;;
17596;SDS011;8917;50.942;6.946;2022-07-09T12:35:45;3.70;;;2.83;;
17596;SDS011;8917;50.942;6.946;2022-07-09T12:38:12;3.47;;;2.53;;
17596;SDS011;8917;50.942;6.946;2022-07-09T12:40:39;3.15;;;2.53;;
17596;SDS011;8917;50.942;6.946;2022-07-09T12:43:06;4.13;;;2.60;;
17596;SDS011;8917;50.942;6.946;2022-07-09T12:45:33;3.72;;;3.40;;
17596;SDS011;8917;50.942;6.946;2022-07-09T12:48:00;5.18;;;3.40;;
17596;SDS011;8917;50.942;6.946;2022-07-09T12:50:28;5.90;;;2.88;;
17596;SDS011;8917;50.942;6.946;2022-07-09T12:52:56;2.63;;;2.42;;
17596;SDS011;8917;50.942;6.946;2022-07-09T12:55:24;4.38;;;2.55;;
17596;SDS011;8917;50.942;6.946;2022-07-09T12:57:51;3.38;;;2.90;;
17596;SDS011;8917;50.942;6.946;2022-07-09T13:00:18;3.08;;;2.67;;
17596;SDS011;8917;50.942;6.946;2022-07-09T13:02:47;5.65;;;2.78;;
17596;SDS011;8917;50.942;6.946;2022-07-09T13:05:14;3.35;;;2.75;;
17596;SDS011;8917;50.942;6.946;2022-07-09T13:07:42;4.30;;;2.90;;
17596;SDS011;8917;50.942;6.946;2022-07-09T13:10:10;5.38;;;2.83;;
17596;SDS011;8917;50.942;6.946;2022-07-09T13:12:37;5.43;;;3.47;;
17596;SDS011;8917;50.942;6.946;2022-07-09T13:15:05;6.38;;;4.10;;
17596;SDS011;8917;50.942;6.946;2022-07-09T13:17:32;3.95;;;3.55;;
17596;SDS011;8917;50.942;6.946;2022-07-09T13:19:59;6.22;;;4.43;;
17596;SDS011;8917;50.942;6.946;2022-07-09T13:22:27;6.35;;;4.63;;
17596;SDS011;8917;50.942;6.946;2022-07-09T13:24:54;3.78;;;3.45;;
17596;SDS011;8917;50.942;6.946;2022-07-09T13:27:26;4.10;;;3.55;;
17596;SDS011;8917;50.942;6.946;2022-07-09T13:29:54;5.18;;;4.38;;
17596;SDS011;8917;50.942;6.946;2022-07-09T13:32:21;5.03;;;3.80;;
17596;SDS011;8917;50.942;6.946;2022-07-09T13:34:49;4.28;;;3.88;;
17596;SDS011;8917;50.942;6.946;2022-07-09T13:37:17;5.18;;;4.68;;
17596;SDS011;8917;50.942;6.946;2022-07-09T13:39:44;4.80;;;4.40;;
17596;SDS011;8917;50.942;6.946;2022-07-09T13:42:11;5.15;;;4.65;;
17596;SDS011;8917;50.942;6.946;2022-07-09T13:44:40;5.40;;;4.72;;
17596;SDS011;8917;50.942;6.946;2022-07-09T13:47:08;8.30;;;7.45;;
17596;SDS011;8917;50.942;6.946;2022-07-09T13:49:35;6.95;;;5.88;;
17596;SDS011;8917;50.942;6.946;2022-07-09T13:52:03;6.13;;;5.55;;
17596;SDS011;8917;50.942;6.946;2022-07-09T13:54:30;8.50;;;7.03;;
17596;SDS011;8917;50.942;6.946;2022-07-09T13:56:57;11.90;;;7.10;;
17596;SDS011;8917;50.942;6.946;2022-07-09T13:59:25;8.20;;;6.82;;
17596;SDS011;8917;50.942;6.946;2022-07-09T14:01:54;8.70;;;7.75;;
17596;SDS011;8917;50.942;6.946;2022-07-09T14:04:22;7.22;;;6.65;;
17596;SDS011;8917;50.942;6.946;2022-07-09T14:06:49;8.27;;;6.88;;
17596;SDS011;8917;50.942;6.946;2022-07-09T14:09:17;9.88;;;7.25;;
17596;SDS011;8917;50.942;6.946;2022-07-09T14:11:45;8.88;;;7.70;;
17596;SDS011;8917;50.942;6.946;2022-07-09T14:14:13;7.53;;;6.80;;
17596;SDS011;8917;50.942;6.946;2022-07-09T14:16:40;7.50;;;6.72;;
17596;SDS011;8917;50.942;6.946;2022-07-09T14:19:09;7.85;;;7.15;;
17596;SDS011;8917;50.942;6.946;2022-07-09T14:21:37;8.70;;;7.80;;
17596;SDS011;8917;50.942;6.946;2022-07-09T14:24:05;8.80;;;7.57;;
17596;SDS011;8917;50.942;6.946;2022-07-09T14:26:32;8.35;;;7.40;;
17596;SDS011;8917;50.942;6.946;2022-07-09T14:29:01;9.25;;;8.45;;
17596;SDS011;8917;50.942;6.946;2022-07-09T14:31:28;9.77;;;8.77;;
17596;SDS011;8917;50.942;6.946;2022-07-09T14:33:56;9.57;;;8.60;;
17596;SDS011;8917;50.942;6.946;2022-07-09T14:36:24;10.25;;;8.80;;
17596;SDS011;8917;50.942;6.946;2022-07-09T14:38:52;8.80;;;7.90;;
17596;SDS011;8917;50.942;6.946;2022-07-09T14:41:19;10.95;;;8.77;;
17596;SDS011;8917;50.942;6.946;2022-07-09T14:43:46;8.88;;;7.13;;
17596;SDS011;8917;50.942;6.946;2022-07-09T14:46:14;8.55;;;6.53;;
17596;SDS011;8917;50.942;6.946;2022-07-09T14:48:41;7.45;;;5.50;;
17596;SDS011;8917;50.942;6.946;2022-07-09T14:51:08;7.63;;;5.78;;
17596;SDS011;8917;50.942;6.946;2022-07-09T14:53:37;7.55;;;5.63;;
17596;SDS011;8917;50.942;6.946;2022-07-09T14:56:04;7.45;;;5.38;;
17596;SDS011;8917;50.942;6.946;2022-07-09T14:58:31;7.22;;;5.20;;
17596;SDS011;8917;50.942;6.946;2022-07-09T15:00:59;10.20;;;5.40;;
17596;SDS011;8917;50.942;6.946;2022-07-09T15:03:26;5.95;;;4.93;;
17596;SDS011;8917;50.942;6.946;2022-07-09T15:05:53;6.90;;;5.00;;